createdAt,value
2017-09-11T00:14:05.598Z,98787.69
2017-09-11T00:16:32.125Z,98792.17
2017-09-11T00:19:07.678Z,98789.09
2017-09-11T00:21:34.834Z,98786.23
2017-09-11T00:26:42.875Z,98780.97
2017-09-11T00:34:32.676Z,98791.31
2017-09-11T00:37:06.274Z,98788.29
2017-09-11T00:39:37.226Z,98786.45
2017-09-11T00:42:15.021Z,98788.81
2017-09-11T00:44:51.704Z,98797.81
2017-09-11T00:47:18.430Z,98801.43
2017-09-11T00:52:23.515Z,98804.59
2017-09-11T00:54:53.015Z,98802.81
2017-09-11T00:57:20.059Z,98807.64
2017-09-11T01:02:35.040Z,98806.77
2017-09-11T01:05:09.271Z,98802.70
2017-09-11T01:10:19.340Z,98789.69
2017-09-11T01:12:54.575Z,98787.44
2017-09-11T01:15:22.521Z,98785.14
2017-09-11T01:20:27.595Z,98783.11
2017-09-11T01:25:37.368Z,98788.14
2017-09-11T01:28:13.017Z,98787.92
2017-09-11T01:30:40.654Z,98790.92
2017-09-11T01:33:10.181Z,98792.34
2017-09-11T01:43:38.021Z,98781.27
2017-09-11T06:10:00.448Z,98724.16
2017-09-11T06:12:26.686Z,98730.18
2017-09-11T06:14:52.927Z,98732.71
2017-09-11T06:17:19.163Z,98726.34
2017-09-11T06:19:45.367Z,98735.73
2017-09-11T06:22:11.603Z,98726.99
2017-09-11T06:24:37.834Z,98736.29
2017-09-11T06:27:04.061Z,98730.64
2017-09-11T06:29:30.219Z,98733.35
2017-09-11T06:31:56.408Z,98730.41
2017-09-11T06:34:22.648Z,98725.12
2017-09-11T06:36:48.883Z,98727.72
2017-09-11T06:39:15.116Z,98733.98
2017-09-11T06:41:41.348Z,98734.07
2017-09-11T06:44:07.579Z,98731.45
2017-09-11T06:46:33.793Z,98729.41
2017-09-11T06:49:00.028Z,98730.45
2017-09-11T06:51:26.255Z,98732.84
2017-09-11T06:53:52.477Z,98734.80
2017-09-11T06:56:18.729Z,98738.70
2017-09-11T06:58:44.961Z,98741.62
2017-09-11T07:01:11.183Z,98739.50
2017-09-11T07:03:37.397Z,98740.50
2017-09-11T07:06:03.632Z,98737.80
2017-09-11T07:08:29.872Z,98738.05
2017-09-11T07:10:56.089Z,98726.50
2017-09-11T07:13:22.317Z,98730.39
2017-09-11T07:15:48.484Z,98725.52
2017-09-11T07:18:14.638Z,98719.53
2017-09-11T07:20:40.812Z,98724.75
2017-09-11T07:23:07.035Z,98719.48
2017-09-11T07:25:33.277Z,98721.58
2017-09-11T07:27:59.495Z,98720.33
2017-09-11T07:30:25.743Z,98712.20
2017-09-11T07:32:51.945Z,98709.23
2017-09-11T07:35:18.179Z,98709.66
2017-09-11T07:37:44.363Z,98708.87
2017-09-11T07:40:10.538Z,98702.95
2017-09-11T07:42:36.761Z,98700.83
2017-09-11T07:45:03.286Z,98700.88
2017-09-11T07:47:29.543Z,98694.96
2017-09-11T07:49:55.767Z,98688.77
2017-09-11T07:52:22.000Z,98687.29
2017-09-11T07:54:48.225Z,98680.14
2017-09-11T07:57:14.466Z,98680.56
2017-09-11T07:59:40.676Z,98676.07
2017-09-11T08:02:06.836Z,98674.05
2017-09-11T08:04:32.981Z,98666.80
2017-09-11T08:06:59.116Z,98662.28
2017-09-11T08:09:25.272Z,98656.48
2017-09-11T08:11:51.435Z,98656.72
2017-09-11T08:14:17.601Z,98653.84
2017-09-11T08:16:43.766Z,98649.12
2017-09-11T08:19:09.921Z,98646.30
2017-09-11T08:21:36.084Z,98647.17
2017-09-11T08:24:02.229Z,98635.32
2017-09-11T08:26:28.393Z,98640.73
2017-09-11T08:28:54.557Z,98629.47
2017-09-11T08:31:20.719Z,98631.83
2017-09-11T08:33:46.877Z,98623.72
2017-09-11T08:36:13.049Z,98621.29
2017-09-11T08:38:39.210Z,98626.16
2017-09-11T08:41:05.365Z,98618.31
2017-09-11T08:43:31.542Z,98612.42
2017-09-11T08:46:00.870Z,98615.34
2017-09-11T08:48:27.032Z,98607.27
2017-09-11T08:50:53.191Z,98608.06
2017-09-11T08:53:19.348Z,98602.05
2017-09-11T08:55:45.505Z,98587.83
2017-09-11T08:58:11.677Z,98586.14
2017-09-11T09:00:37.835Z,98581.32
2017-09-11T09:03:03.994Z,98573.55
2017-09-11T09:05:30.147Z,98569.49
2017-09-11T09:07:56.302Z,98569.70
2017-09-11T09:10:22.446Z,98559.59
2017-09-11T09:12:48.602Z,98556.30
2017-09-11T09:15:14.782Z,98560.83
2017-09-11T09:17:40.962Z,98546.67
2017-09-11T09:20:07.118Z,98555.74
2017-09-11T09:22:33.283Z,98540.36
2017-09-11T09:24:59.445Z,98541.49
2017-09-11T09:27:25.648Z,98539.84
2017-09-11T09:29:51.814Z,98533.65
2017-09-11T09:32:17.980Z,98523.80
2017-09-11T09:34:44.142Z,98528.69
2017-09-11T09:37:10.335Z,98517.89
2017-09-11T09:39:36.488Z,98516.97
2017-09-11T09:42:02.655Z,98502.56
2017-09-11T09:44:28.808Z,98497.31
2017-09-11T09:46:54.977Z,98495.78
2017-09-11T09:49:21.166Z,98490.97
2017-09-11T09:51:47.354Z,98481.12
2017-09-11T09:54:13.525Z,98484.41
2017-09-11T09:56:39.714Z,98478.25
2017-09-11T09:59:05.895Z,98472.56
2017-09-11T10:01:32.138Z,98461.45
2017-09-11T10:03:59.550Z,98471.30
2017-09-11T10:06:25.732Z,98463.74
2017-09-11T10:08:51.923Z,98465.80
2017-09-11T10:11:18.093Z,98466.61
2017-09-11T10:13:44.257Z,98461.09
2017-09-11T10:16:10.422Z,98453.23
2017-09-11T10:18:36.575Z,98453.56
2017-09-11T10:21:02.754Z,98451.44
2017-09-11T10:23:28.908Z,98443.30
2017-09-11T10:25:55.062Z,98434.67
2017-09-11T10:28:21.217Z,98442.60
2017-09-11T10:30:47.393Z,98422.26
2017-09-11T10:33:13.572Z,98438.48
2017-09-11T10:35:39.790Z,98434.58
2017-09-11T10:38:06.025Z,98428.78
2017-09-11T10:40:32.251Z,98424.13
2017-09-11T10:42:58.501Z,98423.69
2017-09-11T10:45:24.714Z,98438.84
2017-09-11T10:47:50.934Z,98435.90
2017-09-11T10:50:17.180Z,98423.94
2017-09-11T10:52:43.408Z,98411.48
2017-09-11T10:55:09.629Z,98411.81
2017-09-11T10:57:35.866Z,98412.14
2017-09-11T11:00:02.097Z,98402.69
2017-09-11T11:02:28.337Z,98418.22
2017-09-11T11:04:54.545Z,98419.12
2017-09-11T11:07:20.766Z,98416.68
2017-09-11T11:09:47.007Z,98425.98
2017-09-11T11:12:13.231Z,98421.08
2017-09-11T11:14:39.462Z,98414.45
2017-09-11T11:17:05.702Z,98418.38
2017-09-11T11:19:31.933Z,98396.86
2017-09-11T11:21:58.161Z,98399.30
2017-09-11T11:24:24.395Z,98402.30
2017-09-11T11:26:50.750Z,98395.34
2017-09-11T11:29:16.959Z,98405.22
2017-09-11T11:31:43.175Z,98393.14
2017-09-11T11:34:09.423Z,98396.81
2017-09-11T11:36:35.647Z,98397.81
2017-09-11T11:39:01.901Z,98391.72
2017-09-11T11:41:28.116Z,98400.53
2017-09-11T11:43:54.323Z,98376.84
2017-09-11T11:46:20.604Z,98385.12
2017-09-11T11:48:46.786Z,98375.14
2017-09-11T11:51:13.036Z,98369.78
2017-09-11T11:53:39.253Z,98374.84
2017-09-11T11:56:05.484Z,98375.98
2017-09-11T11:58:31.713Z,98387.63
2017-09-11T12:00:57.942Z,98377.55
2017-09-11T12:03:24.182Z,98382.21
2017-09-11T12:05:50.397Z,98374.55
2017-09-11T12:08:16.643Z,98355.61
2017-09-11T12:10:42.815Z,98351.53
2017-09-11T12:13:08.994Z,98367.55
2017-09-11T12:15:35.215Z,98345.27
2017-09-11T12:18:01.441Z,98350.52
2017-09-11T12:20:27.695Z,98325.77
2017-09-11T12:22:53.897Z,98338.47
2017-09-11T12:25:20.137Z,98330.62
2017-09-11T12:27:46.410Z,98343.01
2017-09-11T12:30:12.616Z,98322.46
2017-09-11T12:32:38.814Z,98323.73
2017-09-11T12:35:05.081Z,98332.17
2017-09-11T12:37:31.278Z,98319.56
2017-09-11T12:39:57.523Z,98313.68
2017-09-11T12:42:23.751Z,98320.58
2017-09-11T12:44:50.000Z,98314.04
2017-09-11T12:47:16.198Z,98308.94
2017-09-11T12:49:42.363Z,98306.69
2017-09-11T12:52:08.570Z,98307.24
2017-09-11T12:54:34.808Z,98293.10
2017-09-11T12:57:01.021Z,98294.02
2017-09-11T12:59:27.214Z,98307.73
2017-09-11T13:01:53.361Z,98299.95
2017-09-11T13:04:19.602Z,98297.75
2017-09-11T13:06:45.847Z,98284.95
2017-09-11T13:09:12.062Z,98297.18
2017-09-11T13:11:38.289Z,98287.28
2017-09-11T13:14:04.531Z,98281.25
2017-09-11T13:16:30.765Z,98292.89
2017-09-11T13:18:56.985Z,98285.52
2017-09-11T13:21:23.207Z,98270.89
2017-09-11T13:23:49.433Z,98270.30
2017-09-11T13:26:15.686Z,98252.73
2017-09-11T13:28:41.915Z,98258.88
2017-09-11T13:31:08.129Z,98265.30
2017-09-11T13:33:34.388Z,98259.11
2017-09-11T13:36:00.610Z,98263.56
2017-09-11T13:38:26.837Z,98245.40
2017-09-11T13:40:53.060Z,98246.34
2017-09-11T13:43:19.296Z,98249.08
2017-09-11T13:45:45.520Z,98248.42
2017-09-11T13:48:11.746Z,98245.94
2017-09-11T13:50:37.969Z,98248.80
2017-09-11T13:53:04.213Z,98240.33
2017-09-11T13:55:30.436Z,98239.69
2017-09-11T13:57:56.668Z,98248.00
2017-09-11T14:00:22.895Z,98232.28
2017-09-11T14:02:49.053Z,98223.71
2017-09-11T14:05:15.273Z,98239.41
2017-09-11T14:07:41.777Z,98238.61
2017-09-11T14:10:08.055Z,98246.75
2017-09-11T14:12:34.229Z,98239.01
2017-09-11T14:15:00.474Z,98241.86
2017-09-11T14:17:26.704Z,98223.16
2017-09-11T14:19:52.943Z,98230.54
2017-09-11T14:22:19.162Z,98238.34
2017-09-11T14:24:45.394Z,98230.03
2017-09-11T14:27:11.556Z,98215.32
2017-09-11T14:29:37.762Z,98222.22
2017-09-11T14:32:03.931Z,98225.33
2017-09-11T14:34:30.116Z,98225.37
2017-09-11T14:36:56.348Z,98228.93
2017-09-11T14:39:22.586Z,98227.94
2017-09-11T14:41:48.818Z,98251.65
2017-09-11T14:44:15.039Z,98218.63
2017-09-11T14:46:41.256Z,98207.92
2017-09-11T14:49:07.423Z,98195.13
2017-09-11T14:51:33.606Z,98213.12
2017-09-11T14:53:59.834Z,98202.95
2017-09-11T14:56:26.073Z,98196.73
2017-09-11T14:58:52.293Z,98197.72
2017-09-11T15:01:18.532Z,98187.45
2017-09-11T15:03:44.774Z,98194.15
2017-09-11T15:06:11.003Z,98179.67
2017-09-11T15:08:37.228Z,98167.48
2017-09-11T15:11:03.441Z,98179.91
2017-09-11T15:13:29.662Z,98171.73
2017-09-11T15:16:00.366Z,98173.98
2017-09-11T15:18:26.637Z,98168.98
2017-09-11T15:20:52.783Z,98168.91
2017-09-11T15:23:19.541Z,98158.08
2017-09-11T15:25:45.937Z,98153.84
2017-09-11T15:28:12.173Z,98161.78
2017-09-11T15:30:38.480Z,98159.02
2017-09-11T15:33:04.752Z,98159.16
2017-09-11T15:35:30.978Z,98154.42
2017-09-11T15:37:57.196Z,98146.23
2017-09-11T15:40:23.427Z,98140.22
2017-09-11T15:42:49.654Z,98143.50
2017-09-11T15:45:15.891Z,98136.59
2017-09-11T15:47:42.124Z,98127.22
2017-09-11T15:50:08.347Z,98125.22
2017-09-11T15:52:34.584Z,98123.78
2017-09-11T15:55:00.808Z,98113.85
2017-09-11T15:57:27.047Z,98111.29
2017-09-11T15:59:53.222Z,98106.61
2017-09-11T16:02:19.381Z,98104.45
2017-09-11T16:04:45.635Z,98112.73
2017-09-11T16:07:11.854Z,98103.20
2017-09-11T16:09:38.097Z,98111.78
2017-09-11T16:12:07.632Z,98107.18
2017-09-11T16:14:33.910Z,98105.52
2017-09-11T16:19:38.668Z,98103.75
2017-09-11T16:22:14.569Z,98104.63
2017-09-11T16:24:50.133Z,98101.49
2017-09-11T16:27:16.403Z,98094.97
2017-09-11T16:29:42.650Z,98092.73
2017-09-11T16:32:08.861Z,98093.63
2017-09-11T16:34:35.099Z,98097.95
2017-09-11T16:37:01.334Z,98097.02
2017-09-11T16:39:27.554Z,98090.00
2017-09-11T16:41:53.777Z,98098.72
2017-09-11T16:44:20.020Z,98096.97
2017-09-11T16:46:46.243Z,98084.91
2017-09-11T16:49:12.493Z,98081.52
2017-09-11T16:51:38.705Z,98071.78
2017-09-11T16:54:04.929Z,98066.95
2017-09-11T16:56:31.107Z,98073.89
2017-09-11T16:58:57.318Z,98072.68
2017-09-11T17:01:23.537Z,98077.42
2017-09-11T17:03:49.738Z,98068.92
2017-09-11T17:06:16.002Z,98069.14
2017-09-11T17:08:42.207Z,98079.59
2017-09-11T17:11:08.476Z,98092.95
2017-09-11T17:13:34.673Z,98097.78
2017-09-11T17:16:00.902Z,98099.23
2017-09-11T17:18:27.140Z,98094.65
2017-09-11T17:20:53.391Z,98099.23
2017-09-11T17:23:19.592Z,98094.22
2017-09-11T17:25:45.823Z,98104.81
2017-09-11T17:28:12.052Z,98107.42
2017-09-11T17:30:38.297Z,98107.09
2017-09-11T17:33:04.519Z,98109.38
2017-09-11T17:35:30.755Z,98114.52
2017-09-11T17:37:56.980Z,98107.64
2017-09-11T17:40:23.204Z,98109.70
2017-09-11T17:42:49.445Z,98110.42
2017-09-11T17:45:15.643Z,98108.34
2017-09-11T17:47:41.900Z,98111.18
2017-09-11T17:50:08.123Z,98123.27
2017-09-11T17:52:34.331Z,98117.75
2017-09-11T17:55:00.607Z,98122.88
2017-09-11T17:57:26.825Z,98114.78
2017-09-11T17:59:53.024Z,98116.39
2017-09-11T18:02:19.254Z,98115.85
2017-09-11T18:04:45.498Z,98117.15
2017-09-11T18:07:11.719Z,98110.38
2017-09-11T18:09:37.996Z,98100.98
2017-09-11T18:12:04.188Z,98101.28
2017-09-11T18:14:30.401Z,98091.89
2017-09-11T18:16:56.643Z,98085.74
2017-09-11T18:19:22.977Z,98086.53
2017-09-11T18:21:49.213Z,98067.57
2017-09-11T18:24:15.460Z,98066.81
2017-09-11T18:26:41.658Z,98061.64
2017-09-11T18:29:07.896Z,98048.53
2017-09-11T18:31:34.119Z,98045.38
2017-09-11T18:34:00.359Z,98037.03
2017-09-11T18:36:26.570Z,98036.29
2017-09-11T18:38:52.803Z,98010.57
2017-09-11T18:41:19.040Z,98014.47
2017-09-11T18:43:45.255Z,98005.88
2017-09-11T18:46:11.495Z,98004.20
2017-09-11T18:48:37.743Z,97993.27
2017-09-11T18:51:03.954Z,97978.80
2017-09-11T18:53:30.179Z,97976.25
2017-09-11T18:55:56.400Z,97980.22
2017-09-11T18:58:22.638Z,97964.46
2017-09-11T19:00:49.996Z,97961.45
2017-09-11T19:03:16.222Z,97957.83
2017-09-11T19:05:42.450Z,97947.53
2017-09-11T19:08:08.692Z,97946.59
2017-09-11T19:10:34.922Z,97963.11
2017-09-11T19:13:01.146Z,97969.14
2017-09-11T19:15:27.386Z,97956.99
2017-09-11T19:17:53.609Z,97957.25
2017-09-11T19:20:19.829Z,97946.28
2017-09-11T19:22:46.080Z,97944.08
2017-09-11T19:25:12.290Z,97948.77
2017-09-11T19:27:38.513Z,97970.98
2017-09-11T19:30:04.761Z,97970.43
2017-09-11T19:32:31.001Z,97966.52
2017-09-11T19:34:57.216Z,97976.77
2017-09-11T19:37:23.463Z,97985.19
2017-09-11T19:39:49.683Z,97981.13
2017-09-11T19:42:15.905Z,98007.08
2017-09-11T19:44:42.140Z,97998.36
2017-09-11T19:47:08.366Z,98010.89
2017-09-11T19:49:34.605Z,98012.39
2017-09-11T19:52:00.813Z,98004.02
2017-09-11T19:54:27.055Z,98024.75
2017-09-11T19:56:53.278Z,98010.13
2017-09-11T19:59:19.515Z,98019.24
2017-09-11T20:01:45.743Z,98027.63
2017-09-11T20:04:11.974Z,98030.33
2017-09-11T20:06:38.200Z,98032.63
2017-09-11T20:09:04.418Z,98026.56
2017-09-11T20:11:30.653Z,98029.52
2017-09-11T20:13:56.895Z,98030.28
2017-09-11T20:16:23.169Z,98000.64
2017-09-11T20:18:49.336Z,98008.59
2017-09-11T20:21:15.574Z,98013.56
2017-09-11T20:23:41.805Z,98006.87
2017-09-11T20:26:08.068Z,98016.04
2017-09-11T20:28:34.291Z,98004.50
2017-09-11T20:31:00.500Z,97974.97
2017-09-11T20:33:26.726Z,97970.56
2017-09-11T20:35:52.957Z,97966.84
2017-09-11T20:38:19.187Z,97948.67
2017-09-11T20:40:45.415Z,97951.28
2017-09-11T20:43:11.651Z,97958.13
2017-09-11T20:45:37.865Z,97926.11
2017-09-11T20:48:04.117Z,97924.48
2017-09-11T20:50:30.333Z,97932.16
2017-09-11T20:52:56.569Z,97919.96
2017-09-11T20:55:22.782Z,97915.47
2017-09-11T20:57:49.022Z,97916.22
2017-09-11T21:00:15.263Z,97911.70
2017-09-11T21:02:41.497Z,97913.27
2017-09-11T21:05:07.708Z,97929.39
2017-09-11T21:07:33.949Z,97914.53
2017-09-11T21:10:00.184Z,97917.17
2017-09-11T21:12:26.396Z,97904.52
2017-09-11T21:14:52.640Z,97931.94
2017-09-11T21:17:18.881Z,97920.72
2017-09-11T21:19:45.095Z,97948.22
2017-09-11T21:22:11.339Z,97916.81
2017-09-11T21:24:37.556Z,97911.66
2017-09-11T21:27:03.782Z,97932.30
2017-09-11T21:29:30.017Z,97920.30
2017-09-11T21:31:56.246Z,97914.31
2017-09-11T21:34:22.479Z,97936.98
2017-09-11T21:36:48.691Z,97949.13
2017-09-11T21:39:14.934Z,97963.27
2017-09-11T21:41:41.175Z,97956.38
2017-09-11T21:44:07.382Z,97962.30
2017-09-11T21:46:33.607Z,97983.31
2017-09-11T21:48:59.851Z,97973.48
2017-09-11T21:51:26.085Z,97976.66
2017-09-11T21:53:52.315Z,97971.44
2017-09-11T21:56:18.536Z,97971.84
2017-09-11T21:58:44.782Z,97965.80
2017-09-11T22:01:11.006Z,97978.42
2017-09-11T22:03:37.229Z,97968.64
2017-09-11T22:06:03.465Z,97979.80
2017-09-11T22:08:29.703Z,97975.98
2017-09-11T22:10:55.914Z,97969.64
2017-09-11T22:13:22.132Z,97985.84
2017-09-11T22:15:48.376Z,97994.41
2017-09-11T22:18:14.600Z,97999.33
2017-09-11T22:20:40.835Z,98001.61
2017-09-11T22:23:07.069Z,97997.25
2017-09-11T22:25:33.294Z,97994.06
2017-09-11T22:27:59.511Z,98001.01
2017-09-11T22:30:25.749Z,98004.73
2017-09-11T22:32:51.989Z,98008.81
2017-09-11T22:35:18.214Z,98002.65
2017-09-11T22:37:44.434Z,98014.88
2017-09-11T22:40:10.664Z,98008.12
2017-09-11T22:42:36.891Z,98005.52
2017-09-11T22:45:03.142Z,98005.11
2017-09-11T22:47:29.354Z,98004.66
2017-09-11T22:49:55.646Z,98005.84
2017-09-11T22:52:21.818Z,97996.69
2017-09-11T22:54:48.049Z,97986.73
2017-09-11T22:57:14.279Z,97991.31
2017-09-11T22:59:40.506Z,97984.28
2017-09-11T23:02:06.751Z,97984.27
2017-09-11T23:04:32.969Z,97985.20
2017-09-11T23:06:59.193Z,97962.50
2017-09-11T23:09:25.419Z,97969.64
2017-09-11T23:11:51.659Z,97964.47
2017-09-11T23:14:17.891Z,97974.34
2017-09-11T23:16:44.120Z,97971.12
2017-09-11T23:19:10.342Z,97954.29
2017-09-11T23:21:36.573Z,97970.19
2017-09-11T23:24:02.805Z,97980.31
2017-09-11T23:26:29.029Z,97966.52
2017-09-11T23:28:55.261Z,97967.98
2017-09-11T23:31:21.492Z,97962.80
2017-09-11T23:33:47.725Z,97960.84
2017-09-11T23:36:13.942Z,97962.92
2017-09-11T23:38:40.195Z,97961.77
2017-09-11T23:41:06.405Z,97954.19
2017-09-11T23:43:32.634Z,97979.09
2017-09-11T23:45:58.871Z,97961.56
2017-09-11T23:48:25.119Z,97952.87
2017-09-11T23:50:51.329Z,97964.67
2017-09-11T23:53:17.552Z,97959.27
2017-09-11T23:55:43.790Z,97955.75
2017-09-11T23:58:10.014Z,97959.05
